Time;durP1;ratioP1;P1;durP2;ratioP2;P2;SDS_P1;SDS_P2;PMS_P1;PMS_P2;Temp;Humidity;BMP_temperature;BMP_pressure;BME280_temperature;BME280_humidity;BME280_pressure;Samples;Min_cycle;Max_cycle;Signal;HPM_P1;HPM_P2
2024/01/01 00:00:28;;;;;;;17.40;14.50;;;11.70;99.90;;;;;;4992769;28;20190;-77
2024/01/01 00:02:53;;;;;;;15.53;12.63;;;11.60;99.90;;;;;;4959037;28;20199;-78
2024/01/01 00:05:19;;;;;;;13.27;10.87;;;11.60;99.90;;;;;;4974865;28;20594;-77
2024/01/01 00:07:50;;;;;;;13.47;10.47;;;11.60;99.90;;;;;;4992778;28;20186;-77
2024/01/01 00:10:19;;;;;;;16.40;10.45;;;11.70;99.90;;;;;;4992440;28;20194;-77
2024/01/01 00:12:46;;;;;;;10.80;9.02;;;11.60;99.90;;;;;;4972508;28;20206;-77
2024/01/01 00:15:12;;;;;;;13.43;9.27;;;11.70;99.90;;;;;;4991025;28;20233;-77
2024/01/01 00:17:38;;;;;;;13.30;8.63;;;11.60;99.90;;;;;;4991833;28;20183;-77
2024/01/01 00:20:05;;;;;;;10.10;6.82;;;11.60;99.90;;;;;;4974737;28;20978;-77
2024/01/01 00:22:31;;;;;;;9.32;6.35;;;11.60;99.90;;;;;;4992364;28;20245;-77
2024/01/01 00:24:58;;;;;;;9.53;5.53;;;11.60;99.90;;;;;;4992137;28;20183;-77
2024/01/01 00:27:24;;;;;;;12.60;5.45;;;11.60;99.90;;;;;;4991257;28;20202;-77
2024/01/01 00:29:50;;;;;;;9.45;5.28;;;11.50;99.90;;;;;;4974624;28;20183;-77
2024/01/01 00:32:16;;;;;;;10.20;5.20;;;11.60;99.90;;;;;;4974474;28;20403;-76
2024/01/01 00:34:42;;;;;;;8.40;4.67;;;11.50;99.90;;;;;;4958308;28;20617;-77
2024/01/01 00:37:08;;;;;;;6.65;3.35;;;11.50;99.90;;;;;;4974192;28;20681;-77
2024/01/01 00:39:34;;;;;;;4.15;3.03;;;11.50;99.90;;;;;;4974389;28;20171;-77
2024/01/01 00:42:00;;;;;;;5.00;2.50;;;11.50;99.90;;;;;;4974300;28;20174;-77
2024/01/01 00:44:26;;;;;;;7.60;3.90;;;11.50;99.90;;;;;;4942192;28;20230;-77
2024/01/01 00:46:52;;;;;;;3.88;2.60;;;11.40;99.90;;;;;;4938543;28;20176;-77
2024/01/01 00:49:17;;;;;;;5.37;2.53;;;11.40;99.90;;;;;;4991407;28;20257;-77
2024/01/01 00:51:43;;;;;;;4.60;2.33;;;11.40;99.90;;;;;;4958084;28;20644;-77
2024/01/01 00:54:10;;;;;;;6.70;2.23;;;11.40;99.90;;;;;;4973848;28;20273;-77
2024/01/01 00:56:36;;;;;;;10.40;3.08;;;11.40;99.90;;;;;;4973513;28;20669;-77
2024/01/01 00:59:02;;;;;;;8.37;1.80;;;11.40;99.90;;;;;;4974410;28;20601;-76
2024/01/01 01:01:27;;;;;;;5.10;1.60;;;11.40;99.90;;;;;;4974315;28;20177;-75
2024/01/01 01:03:53;;;;;;;4.20;1.63;;;11.30;99.90;;;;;;4938716;28;20666;-78
2024/01/01 01:06:22;;;;;;;4.90;1.80;;;11.30;99.90;;;;;;4973227;28;20574;-78
2024/01/01 01:08:48;;;;;;;12.82;2.38;;;11.30;99.90;;;;;;4974928;28;20229;-77
2024/01/01 01:11:14;;;;;;;4.40;2.00;;;11.40;99.90;;;;;;4957822;28;20260;-78
2024/01/01 01:13:39;;;;;;;6.43;1.52;;;11.30;99.90;;;;;;4991163;28;20209;-77
2024/01/01 01:16:05;;;;;;;4.40;1.70;;;11.40;99.90;;;;;;4955855;28;20171;-77
2024/01/01 01:18:31;;;;;;;4.40;1.50;;;11.40;99.90;;;;;;4974044;28;20178;-77
2024/01/01 01:20:56;;;;;;;4.03;1.30;;;11.40;99.90;;;;;;4973874;28;21001;-78
2024/01/01 01:23:22;;;;;;;7.60;1.50;;;11.40;99.90;;;;;;4973567;28;20191;-78
2024/01/01 01:25:49;;;;;;;3.80;1.60;;;11.40;99.90;;;;;;4973099;28;20273;-77
2024/01/01 01:28:22;;;;;;;4.60;1.90;;;11.40;99.90;;;;;;4957412;28;20183;-77
2024/01/01 01:30:48;;;;;;;5.03;1.50;;;11.40;99.90;;;;;;4991085;28;20281;-78
2024/01/01 01:33:14;;;;;;;3.60;1.33;;;11.50;99.90;;;;;;4990724;28;20760;-76
2024/01/01 01:35:39;;;;;;;5.50;1.30;;;11.50;99.90;;;;;;4957018;28;20175;-76
2024/01/01 01:38:05;;;;;;;3.60;1.40;;;11.50;99.90;;;;;;4973666;28;20167;-76
2024/01/01 01:40:30;;;;;;;5.47;1.40;;;11.50;99.90;;;;;;4973380;28;20637;-76
2024/01/01 01:42:56;;;;;;;5.03;1.40;;;11.50;99.90;;;;;;4990796;28;20206;-77
2024/01/01 01:45:22;;;;;;;7.47;1.33;;;11.50;99.90;;;;;;4990317;28;20262;-76
2024/01/01 01:47:48;;;;;;;9.57;1.77;;;11.50;99.90;;;;;;4957383;28;20321;-76
2024/01/01 01:50:16;;;;;;;4.40;1.40;;;11.50;99.90;;;;;;4973695;28;20269;-77
2024/01/01 01:52:42;;;;;;;4.10;1.00;;;11.50;99.90;;;;;;4956832;28;20685;-77
2024/01/01 01:55:09;;;;;;;2.83;0.98;;;11.50;99.90;;;;;;4990736;28;20178;-77
2024/01/01 01:57:36;;;;;;;4.63;1.10;;;11.50;99.90;;;;;;4972949;28;20194;-76
2024/01/01 02:00:04;;;;;;;4.88;1.30;;;11.50;99.90;;;;;;4973458;28;20179;-76
2024/01/01 02:02:37;;;;;;;6.50;1.17;;;11.50;99.90;;;;;;4973317;28;20205;-76
2024/01/01 02:05:06;;;;;;;7.23;1.20;;;11.50;99.90;;;;;;4973306;28;20261;-76
2024/01/01 02:07:32;;;;;;;4.57;1.35;;;11.50;99.90;;;;;;4956539;28;20598;-76
2024/01/01 02:09:58;;;;;;;3.67;1.20;;;11.50;99.90;;;;;;4972493;28;20186;-76
2024/01/01 02:12:24;;;;;;;6.50;1.25;;;11.50;99.90;;;;;;4991531;28;20573;-74
2024/01/01 02:14:49;;;;;;;5.60;1.60;;;11.60;99.90;;;;;;4973030;28;20187;-75
2024/01/01 02:17:17;;;;;;;4.67;1.03;;;11.60;99.90;;;;;;4956573;28;20171;-74
2024/01/01 02:19:43;;;;;;;4.40;0.93;;;11.60;99.90;;;;;;4957143;28;20262;-74
2024/01/01 02:22:08;;;;;;;7.90;1.20;;;11.50;99.90;;;;;;4972799;28;20266;-75
2024/01/01 02:24:34;;;;;;;9.60;1.00;;;11.50;99.90;;;;;;4972665;28;20615;-74
2024/01/01 02:27:00;;;;;;;5.60;1.20;;;11.40;99.90;;;;;;4956658;28;20175;-75
2024/01/01 02:29:25;;;;;;;4.87;1.20;;;11.40;99.90;;;;;;4960293;28;20209;-75
2024/01/01 02:31:51;;;;;;;7.13;1.10;;;11.40;99.90;;;;;;4992990;28;20582;-75
2024/01/01 02:34:18;;;;;;;3.90;1.20;;;11.30;99.90;;;;;;4976052;28;20257;-75
2024/01/01 02:36:44;;;;;;;2.80;0.90;;;11.20;99.90;;;;;;4959391;28;20262;-75
2024/01/01 02:39:10;;;;;;;7.78;1.42;;;11.10;99.90;;;;;;4960374;28;20750;-75
2024/01/01 02:41:36;;;;;;;4.87;1.10;;;11.00;99.90;;;;;;4944186;28;20265;-74
2024/01/01 02:44:03;;;;;;;5.47;1.45;;;10.90;99.90;;;;;;4976365;28;20199;-74
2024/01/01 02:46:28;;;;;;;5.78;2.25;;;10.80;99.90;;;;;;4978580;28;20175;-75
2024/01/01 02:48:54;;;;;;;2.80;0.90;;;10.70;99.90;;;;;;4962159;28;20653;-74
2024/01/01 02:51:20;;;;;;;6.60;1.30;;;10.60;99.90;;;;;;4960319;28;20179;-75
2024/01/01 02:53:45;;;;;;;2.67;0.70;;;10.50;99.90;;;;;;4975972;28;20261;-75
2024/01/01 02:56:25;;;;;;;4.30;0.90;;;10.40;99.90;;;;;;4974989;28;20191;-74
2024/01/01 02:58:51;;;;;;;5.80;1.17;;;10.30;99.90;;;;;;4960561;28;20207;-75
2024/01/01 03:01:18;;;;;;;5.85;1.10;;;10.20;99.90;;;;;;4992627;28;20158;-74
2024/01/01 03:03:44;;;;;;;5.88;1.80;;;10.10;99.90;;;;;;4993684;28;20233;-74
2024/01/01 03:06:10;;;;;;;7.10;2.23;;;10.10;99.90;;;;;;4975402;28;20531;-74
2024/01/01 03:08:37;;;;;;;7.53;1.33;;;10.00;99.90;;;;;;4976142;28;20958;-73
2024/01/01 03:11:05;;;;;;;6.32;1.13;;;10.00;99.90;;;;;;4976210;28;20182;-74
2024/01/01 03:13:31;;;;;;;7.18;1.48;;;9.90;99.90;;;;;;4975713;28;20254;-74
2024/01/01 03:15:58;;;;;;;7.33;1.30;;;9.90;99.90;;;;;;4959414;28;20207;-74
2024/01/01 03:18:24;;;;;;;4.32;1.10;;;9.80;99.90;;;;;;4975962;28;20636;-74
2024/01/01 03:20:50;;;;;;;9.77;1.20;;;9.80;99.90;;;;;;4959397;28;20171;-74
2024/01/01 03:23:16;;;;;;;7.15;1.30;;;9.80;99.90;;;;;;4975660;28;20203;-74
2024/01/01 03:25:42;;;;;;;7.80;1.10;;;9.80;99.90;;;;;;4959279;28;20672;-74
2024/01/01 03:28:08;;;;;;;5.60;1.13;;;9.80;99.90;;;;;;4975455;28;20182;-74
2024/01/01 03:30:33;;;;;;;5.30;1.33;;;9.80;99.90;;;;;;4993329;28;20182;-74
2024/01/01 03:32:59;;;;;;;7.50;1.53;;;9.80;99.90;;;;;;4959474;28;20238;-74
2024/01/01 03:35:25;;;;;;;4.93;1.40;;;9.80;99.90;;;;;;4958818;28;20924;-74
2024/01/01 03:37:51;;;;;;;4.60;0.87;;;9.80;99.90;;;;;;4959265;28;20650;-74
2024/01/01 03:40:16;;;;;;;2.87;1.10;;;9.80;99.90;;;;;;4943433;28;21007;-74
2024/01/01 03:42:42;;;;;;;8.40;1.23;;;9.80;99.90;;;;;;4975549;28;20645;-74
2024/01/01 03:45:09;;;;;;;8.73;1.20;;;9.80;99.90;;;;;;4975414;28;20594;-74
2024/01/01 03:47:35;;;;;;;4.38;1.00;;;9.80;99.90;;;;;;4958952;28;20193;-74
2024/01/01 03:50:01;;;;;;;4.63;1.17;;;9.80;99.90;;;;;;4943191;28;20174;-74
2024/01/01 03:52:27;;;;;;;6.83;1.20;;;9.90;99.90;;;;;;4992256;28;20967;-74
2024/01/01 03:54:52;;;;;;;8.93;1.17;;;9.90;99.90;;;;;;4975083;28;20630;-74
2024/01/01 03:57:18;;;;;;;9.20;1.33;;;9.90;99.90;;;;;;4974554;28;20190;-74
2024/01/01 03:59:44;;;;;;;4.45;1.00;;;9.90;99.90;;;;;;4975126;28;20186;-74
2024/01/01 04:02:10;;;;;;;6.70;1.30;;;10.00;99.90;;;;;;4975119;28;20175;-74
2024/01/01 04:04:37;;;;;;;5.00;1.23;;;10.00;99.90;;;;;;4958612;28;20202;-73
2024/01/01 04:07:03;;;;;;;6.47;1.23;;;10.00;99.90;;;;;;4974638;28;20598;-74
2024/01/01 04:09:29;;;;;;;8.82;2.03;;;10.00;99.90;;;;;;4959054;28;20545;-74
2024/01/01 04:11:54;;;;;;;6.60;1.10;;;10.00;99.90;;;;;;4959069;28;20178;-74
2024/01/01 04:14:20;;;;;;;5.53;1.30;;;10.10;99.90;;;;;;4974749;28;20218;-74
2024/01/01 04:16:46;;;;;;;8.13;1.10;;;10.10;99.90;;;;;;4992267;28;20194;-74
2024/01/01 04:19:11;;;;;;;5.83;1.20;;;10.10;99.90;;;;;;4974779;28;20193;-74
2024/01/01 04:21:40;;;;;;;4.20;0.83;;;10.10;99.90;;;;;;4992925;28;20171;-74
2024/01/01 04:24:09;;;;;;;8.77;1.90;;;10.20;99.90;;;;;;4993207;28;20230;-73
2024/01/01 04:26:37;;;;;;;7.53;1.80;;;10.20;99.90;;;;;;4975656;28;20183;-74
2024/01/01 04:29:03;;;;;;;8.45;1.15;;;10.20;99.90;;;;;;4959009;28;20265;-74
2024/01/01 04:31:28;;;;;;;4.90;1.37;;;10.20;99.90;;;;;;4974891;28;20210;-74
2024/01/01 04:33:54;;;;;;;3.50;1.00;;;10.30;99.90;;;;;;4974151;28;20703;-75
2024/01/01 04:36:21;;;;;;;5.80;1.88;;;10.30;99.90;;;;;;4990210;28;20578;-75
2024/01/01 04:38:47;;;;;;;8.77;1.50;;;10.30;99.90;;;;;;4958741;28;20542;-75
2024/01/01 04:41:13;;;;;;;3.80;1.02;;;10.30;99.90;;;;;;4974627;28;20183;-75
2024/01/01 04:43:40;;;;;;;14.95;1.55;;;10.30;99.90;;;;;;4974574;28;20207;-75
2024/01/01 04:46:09;;;;;;;9.27;1.20;;;10.30;99.90;;;;;;4991429;28;20341;-75
2024/01/01 04:48:34;;;;;;;3.83;1.00;;;10.30;99.90;;;;;;4974386;28;20171;-75
2024/01/01 04:51:00;;;;;;;9.40;1.60;;;10.40;99.90;;;;;;4973840;28;20540;-74
2024/01/01 04:53:26;;;;;;;7.20;1.00;;;10.40;99.90;;;;;;4973555;28;20297;-74
2024/01/01 04:55:52;;;;;;;6.00;1.30;;;10.40;99.90;;;;;;4957999;28;20983;-74
2024/01/01 04:58:17;;;;;;;6.43;1.00;;;10.40;99.90;;;;;;4974335;28;20183;-74
2024/01/01 05:00:43;;;;;;;5.13;1.43;;;10.50;99.90;;;;;;4974415;28;20182;-74
2024/01/01 05:03:09;;;;;;;6.77;1.57;;;10.50;99.90;;;;;;4974107;28;20237;-74
2024/01/01 05:05:35;;;;;;;9.10;2.90;;;10.50;99.90;;;;;;4973440;28;20185;-74
2024/01/01 05:08:00;;;;;;;6.43;1.30;;;10.50;99.90;;;;;;4991510;28;20237;-74
2024/01/01 05:10:26;;;;;;;11.67;2.13;;;10.60;99.90;;;;;;4941902;28;20241;-74
2024/01/01 05:12:53;;;;;;;8.20;1.77;;;10.60;99.90;;;;;;4973827;28;20653;-74
2024/01/01 05:15:18;;;;;;;4.70;1.05;;;10.60;99.90;;;;;;4973813;28;20265;-74
2024/01/01 05:17:44;;;;;;;13.40;1.77;;;10.60;99.90;;;;;;4973695;28;20282;-74
2024/01/01 05:20:10;;;;;;;5.77;1.00;;;10.70;99.90;;;;;;4974428;28;20585;-74
2024/01/01 05:22:36;;;;;;;8.67;1.43;;;10.70;99.90;;;;;;4973821;28;20610;-74
2024/01/01 05:25:02;;;;;;;5.93;1.20;;;10.70;99.90;;;;;;4974183;28;20254;-74
2024/01/01 05:27:28;;;;;;;7.57;1.42;;;10.70;99.90;;;;;;4973536;28;20194;-74
2024/01/01 05:29:54;;;;;;;5.25;1.70;;;10.70;99.90;;;;;;4958013;28;20185;-74
2024/01/01 05:32:20;;;;;;;6.80;1.23;;;10.80;99.90;;;;;;4973716;28;20191;-74
2024/01/01 05:34:46;;;;;;;7.57;1.50;;;10.80;99.90;;;;;;4974053;28;20618;-74
2024/01/01 05:37:12;;;;;;;7.18;1.95;;;10.80;99.90;;;;;;4973544;28;20179;-74
2024/01/01 05:39:38;;;;;;;9.13;2.20;;;10.80;99.90;;;;;;4965874;28;20185;-74
2024/01/01 05:42:04;;;;;;;5.63;1.53;;;10.80;99.90;;;;;;4974049;28;20515;-73
2024/01/01 05:44:29;;;;;;;6.30;1.60;;;10.80;99.90;;;;;;4973689;28;20207;-74
2024/01/01 05:46:55;;;;;;;3.47;1.40;;;10.90;99.90;;;;;;4990635;28;20944;-74
2024/01/01 05:49:23;;;;;;;6.40;1.38;;;10.90;99.90;;;;;;4990911;28;20273;-74
2024/01/01 05:51:49;;;;;;;8.30;1.73;;;10.90;99.90;;;;;;4991243;28;20178;-74
2024/01/01 05:54:15;;;;;;;9.55;2.47;;;10.90;99.90;;;;;;4990573;28;20566;-74
2024/01/01 05:56:41;;;;;;;7.32;1.85;;;11.00;99.90;;;;;;4973116;28;20171;-74
2024/01/01 05:59:07;;;;;;;9.83;2.10;;;11.00;99.90;;;;;;4973518;28;20181;-74
2024/01/01 06:01:32;;;;;;;7.30;1.40;;;11.00;99.90;;;;;;4974723;28;20610;-74
2024/01/01 06:03:58;;;;;;;8.77;1.37;;;11.00;99.90;;;;;;4994779;28;20700;-74
2024/01/01 06:06:24;;;;;;;6.17;1.40;;;11.00;99.90;;;;;;4976776;28;20205;-73
2024/01/01 06:08:50;;;;;;;4.25;1.05;;;11.10;99.90;;;;;;4977619;28;20214;-74
2024/01/01 06:11:16;;;;;;;9.07;1.37;;;11.10;99.90;;;;;;4977511;28;20604;-74
2024/01/01 06:13:43;;;;;;;6.10;1.52;;;11.10;99.90;;;;;;4960972;28;20741;-74
2024/01/01 06:16:09;;;;;;;5.68;1.23;;;11.10;99.90;;;;;;4960873;28;20265;-74
2024/01/01 06:18:34;;;;;;;3.80;1.40;;;11.20;99.90;;;;;;4977102;28;20583;-74
2024/01/01 06:21:00;;;;;;;5.90;1.10;;;11.10;99.90;;;;;;4961204;28;20548;-74
2024/01/01 06:23:26;;;;;;;9.63;1.48;;;11.20;99.90;;;;;;4976809;28;20210;-74
2024/01/01 06:25:52;;;;;;;11.10;1.60;;;11.20;99.90;;;;;;4994062;28;20179;-73
2024/01/01 06:28:18;;;;;;;9.67;2.50;;;11.20;99.90;;;;;;4976885;28;20574;-73
2024/01/01 06:30:45;;;;;;;7.03;1.38;;;11.20;99.90;;;;;;4977267;28;20330;-74
2024/01/01 06:33:11;;;;;;;5.57;1.70;;;11.20;99.90;;;;;;4977033;28;20289;-74
2024/01/01 06:35:37;;;;;;;3.43;1.30;;;11.20;99.90;;;;;;4993972;28;20274;-74
2024/01/01 06:38:03;;;;;;;4.05;1.40;;;11.20;99.90;;;;;;4977045;28;20585;-74
2024/01/01 06:40:29;;;;;;;8.68;2.15;;;11.30;99.90;;;;;;4994450;28;20226;-74
2024/01/01 06:42:55;;;;;;;5.90;1.90;;;11.30;99.90;;;;;;4994146;28;20681;-74
2024/01/01 06:45:20;;;;;;;6.70;1.10;;;11.30;99.90;;;;;;4994345;28;20183;-74
2024/01/01 06:47:47;;;;;;;5.53;1.33;;;11.30;99.90;;;;;;4960427;28;20187;-74
2024/01/01 06:50:14;;;;;;;5.95;1.52;;;11.30;99.90;;;;;;4994390;28;20576;-74
2024/01/01 06:52:39;;;;;;;9.65;1.55;;;11.20;99.90;;;;;;4993740;28;20198;-74
2024/01/01 06:55:06;;;;;;;8.90;2.10;;;11.20;99.90;;;;;;4994070;28;20667;-74
2024/01/01 06:57:32;;;;;;;7.85;1.17;;;11.20;99.90;;;;;;4993336;28;20578;-74
2024/01/01 06:59:57;;;;;;;6.72;1.80;;;11.20;99.90;;;;;;4976862;28;20168;-74
2024/01/01 07:02:23;;;;;;;5.20;1.27;;;11.30;99.90;;;;;;4976526;28;20649;-74
2024/01/01 07:04:49;;;;;;;6.43;2.43;;;11.30;99.90;;;;;;4972368;28;20242;-74
2024/01/01 07:07:15;;;;;;;7.25;1.30;;;11.30;99.90;;;;;;4956258;28;20183;-73
2024/01/01 07:09:41;;;;;;;9.55;2.08;;;11.20;99.90;;;;;;4960206;28;20186;-74
2024/01/01 07:12:19;;;;;;;7.20;1.20;;;11.30;99.90;;;;;;4976272;28;20175;-74
2024/01/01 07:14:48;;;;;;;11.15;1.95;;;11.20;99.90;;;;;;4959634;28;20629;-75
2024/01/01 07:17:14;;;;;;;8.13;3.15;;;11.20;99.90;;;;;;4975908;28;20183;-75
2024/01/01 07:19:40;;;;;;;6.35;1.48;;;11.30;99.90;;;;;;4993574;28;20167;-75
2024/01/01 07:22:05;;;;;;;7.80;1.77;;;11.30;99.90;;;;;;4976213;28;20543;-74
2024/01/01 07:24:31;;;;;;;5.17;1.27;;;11.30;99.90;;;;;;4993573;28;20557;-73
2024/01/01 07:26:57;;;;;;;8.93;2.03;;;11.30;99.90;;;;;;4974869;28;20179;-74
2024/01/01 07:29:27;;;;;;;6.00;1.20;;;11.20;99.90;;;;;;4975881;28;20179;-74
2024/01/01 07:31:53;;;;;;;6.88;1.55;;;11.20;99.90;;;;;;4960124;28;20598;-74
2024/01/01 07:34:20;;;;;;;4.82;1.00;;;11.20;99.90;;;;;;4993204;28;20213;-73
2024/01/01 07:36:46;;;;;;;5.65;1.20;;;11.20;99.90;;;;;;4967737;28;20171;-74
2024/01/01 07:39:12;;;;;;;6.88;1.00;;;11.20;99.90;;;;;;4993682;28;20573;-74
2024/01/01 07:41:39;;;;;;;9.70;1.70;;;11.20;99.90;;;;;;4975774;28;20187;-74
2024/01/01 07:44:04;;;;;;;4.93;0.95;;;11.20;99.90;;;;;;4975856;28;20203;-74
2024/01/01 07:46:30;;;;;;;6.73;1.00;;;11.20;99.90;;;;;;4992842;28;20241;-74
2024/01/01 07:48:56;;;;;;;4.87;0.90;;;11.20;99.90;;;;;;4976032;28;20560;-74
2024/01/01 07:51:22;;;;;;;4.40;0.80;;;11.20;99.90;;;;;;4959936;28;20191;-74
2024/01/01 07:53:50;;;;;;;2.80;1.03;;;11.20;99.90;;;;;;4984917;28;20681;-74
2024/01/01 07:56:16;;;;;;;5.35;1.00;;;11.20;99.90;;;;;;4992742;28;20217;-74
2024/01/01 07:58:42;;;;;;;3.17;1.10;;;11.20;99.90;;;;;;4975742;28;20839;-74
2024/01/01 08:01:07;;;;;;;6.17;1.20;;;11.10;99.90;;;;;;4993202;28;20959;-74
2024/01/01 08:03:33;;;;;;;2.43;0.80;;;11.00;99.90;;;;;;4975333;28;20625;-73
2024/01/01 08:05:59;;;;;;;3.17;1.07;;;11.00;99.90;;;;;;4975110;28;20179;-74
2024/01/01 08:08:24;;;;;;;2.30;0.70;;;10.90;99.90;;;;;;4975422;28;20644;-74
2024/01/01 08:10:50;;;;;;;2.47;1.17;;;10.90;99.90;;;;;;4992837;28;20182;-74
2024/01/01 08:13:16;;;;;;;3.43;0.93;;;10.90;99.90;;;;;;4975257;28;20217;-74
2024/01/01 08:15:41;;;;;;;3.20;0.70;;;10.80;99.90;;;;;;4992463;28;21163;-74
2024/01/01 08:18:07;;;;;;;2.57;0.70;;;10.80;99.90;;;;;;4992718;28;20183;-74
2024/01/01 08:20:33;;;;;;;1.90;0.63;;;10.80;99.90;;;;;;4975215;28;20209;-74
2024/01/01 08:22:58;;;;;;;6.60;1.37;;;10.80;99.90;;;;;;4975124;28;20199;-74
2024/01/01 08:25:24;;;;;;;3.70;0.80;;;10.80;99.90;;;;;;4957861;28;20179;-74
2024/01/01 08:27:50;;;;;;;2.27;0.67;;;10.80;99.90;;;;;;4959018;28;20175;-74
2024/01/01 08:30:16;;;;;;;1.50;0.50;;;10.70;99.90;;;;;;4975202;28;20195;-74
2024/01/01 08:32:42;;;;;;;1.50;0.60;;;10.70;99.90;;;;;;4974777;28;20645;-73
2024/01/01 08:35:08;;;;;;;4.07;0.60;;;10.80;99.90;;;;;;4975121;28;20171;-73
2024/01/01 08:37:34;;;;;;;3.80;0.57;;;10.80;99.90;;;;;;4991778;28;20218;-74
2024/01/01 08:39:59;;;;;;;3.10;0.70;;;10.90;99.90;;;;;;4992025;28;20587;-73
2024/01/01 08:42:25;;;;;;;2.40;0.53;;;10.90;99.90;;;;;;4991803;28;20194;-73
2024/01/01 08:44:52;;;;;;;2.13;0.50;;;10.90;99.90;;;;;;4958456;28;20195;-73
2024/01/01 08:47:17;;;;;;;3.72;0.80;;;10.90;99.90;;;;;;4973301;28;20258;-73
2024/01/01 08:49:43;;;;;;;8.27;1.10;;;11.00;99.90;;;;;;4991471;28;20183;-73
2024/01/01 08:52:09;;;;;;;2.63;0.70;;;11.00;99.90;;;;;;4990786;28;20715;-73
2024/01/01 08:54:35;;;;;;;1.90;0.50;;;11.00;99.90;;;;;;4991127;28;20234;-73
2024/01/01 08:57:06;;;;;;;2.70;0.73;;;11.00;99.90;;;;;;4973528;28;20609;-73
2024/01/01 08:59:32;;;;;;;3.53;0.70;;;11.00;99.90;;;;;;4974360;28;20179;-73
2024/01/01 09:01:58;;;;;;;3.67;0.50;;;11.00;99.90;;;;;;4991621;28;20170;-75
2024/01/01 09:04:23;;;;;;;4.53;0.90;;;11.00;99.90;;;;;;4990596;28;20206;-76
2024/01/01 09:06:49;;;;;;;2.33;0.60;;;11.00;99.90;;;;;;4973812;28;20213;-76
2024/01/01 09:09:15;;;;;;;2.73;0.60;;;11.00;99.90;;;;;;4957905;28;20175;-75
2024/01/01 09:11:40;;;;;;;2.80;0.60;;;11.00;99.90;;;;;;4992008;28;20233;-76
2024/01/01 09:14:06;;;;;;;2.20;0.50;;;11.00;99.90;;;;;;4991975;28;20232;-76
2024/01/01 09:16:32;;;;;;;1.60;0.50;;;11.10;99.90;;;;;;4990778;28;20186;-76
2024/01/01 09:19:01;;;;;;;1.40;0.50;;;11.10;99.90;;;;;;4974343;28;20178;-76
2024/01/01 09:21:27;;;;;;;1.80;0.50;;;11.10;99.90;;;;;;4987970;28;20186;-76
2024/01/01 09:24:00;;;;;;;1.40;0.57;;;11.20;99.90;;;;;;4991063;28;20199;-76
2024/01/01 09:26:27;;;;;;;1.73;0.60;;;11.10;99.90;;;;;;4973490;28;20179;-76
2024/01/01 09:28:53;;;;;;;1.60;0.60;;;11.10;99.90;;;;;;4983462;28;20553;-76
2024/01/01 09:31:22;;;;;;;3.63;0.60;;;11.10;99.90;;;;;;4973706;28;20183;-75
2024/01/01 09:33:48;;;;;;;4.72;0.80;;;11.10;99.90;;;;;;4973398;28;20221;-76
2024/01/01 09:36:14;;;;;;;2.20;0.70;;;11.10;99.90;;;;;;4990255;28;20171;-77
2024/01/01 09:38:41;;;;;;;2.40;0.60;;;11.10;99.90;;;;;;4973548;28;20540;-76
2024/01/01 09:41:11;;;;;;;3.17;0.82;;;11.20;99.90;;;;;;4973222;28;20198;-76
2024/01/01 09:43:38;;;;;;;2.95;0.50;;;11.20;99.90;;;;;;4971204;28;20194;-76
2024/01/01 09:46:04;;;;;;;1.40;0.60;;;11.20;99.90;;;;;;4983003;28;20179;-77
2024/01/01 09:48:30;;;;;;;2.00;0.80;;;11.20;99.90;;;;;;4973721;28;20183;-77
2024/01/01 09:50:56;;;;;;;2.40;0.83;;;11.20;99.90;;;;;;4991015;28;20591;-77
2024/01/01 09:53:21;;;;;;;1.63;0.67;;;11.20;99.90;;;;;;4984936;28;20217;-77
2024/01/01 09:55:54;;;;;;;2.33;0.97;;;11.20;99.90;;;;;;4990371;28;20182;-77
2024/01/01 09:58:20;;;;;;;4.13;1.17;;;11.20;99.90;;;;;;4973670;28;20171;-77
2024/01/01 10:00:48;;;;;;;3.67;1.08;;;11.30;99.90;;;;;;4973309;28;20205;-77
2024/01/01 10:03:14;;;;;;;2.58;0.70;;;11.30;99.90;;;;;;4990801;28;20211;-77
2024/01/01 10:05:40;;;;;;;2.80;0.82;;;11.20;99.90;;;;;;4969778;28;20263;-77
2024/01/01 10:08:14;;;;;;;2.17;0.70;;;11.30;99.90;;;;;;4969048;28;20174;-77
2024/01/01 10:10:40;;;;;;;2.03;0.80;;;11.30;99.90;;;;;;4989104;28;20263;-76
2024/01/01 10:13:07;;;;;;;2.35;0.80;;;11.30;99.90;;;;;;4989957;28;20336;-77
2024/01/01 10:15:33;;;;;;;2.70;0.75;;;11.30;99.90;;;;;;4953815;28;20183;-76
2024/01/01 10:18:17;;;;;;;4.23;0.90;;;11.30;99.90;;;;;;4957291;28;20229;-77
2024/01/01 10:20:44;;;;;;;4.72;1.20;;;11.20;99.90;;;;;;4973097;28;20606;-77
2024/01/01 10:23:23;;;;;;;5.20;1.10;;;11.30;99.90;;;;;;4973166;28;20281;-76
2024/01/01 10:25:58;;;;;;;3.83;1.05;;;11.30;99.90;;;;;;4972783;28;20269;-77
2024/01/01 10:28:24;;;;;;;4.53;0.73;;;11.30;99.90;;;;;;4990895;28;20194;-77
2024/01/01 10:30:50;;;;;;;3.17;0.73;;;11.30;99.90;;;;;;4957234;28;20577;-77
2024/01/01 10:33:17;;;;;;;2.50;1.07;;;11.40;99.90;;;;;;4973027;28;20273;-77
2024/01/01 10:35:43;;;;;;;2.80;0.80;;;11.30;99.90;;;;;;4972488;28;20189;-77
2024/01/01 10:38:14;;;;;;;4.65;0.90;;;11.40;99.90;;;;;;4990673;28;20183;-77
2024/01/01 10:40:41;;;;;;;2.30;0.70;;;11.30;99.90;;;;;;4990584;28;20183;-77
2024/01/01 10:43:08;;;;;;;3.08;0.80;;;11.40;99.90;;;;;;4972889;28;20195;-77
2024/01/01 10:45:34;;;;;;;5.60;0.90;;;11.40;99.90;;;;;;4989764;28;20187;-77
2024/01/01 10:48:01;;;;;;;3.47;0.93;;;11.40;99.90;;;;;;4973495;28;20183;-77
2024/01/01 10:50:29;;;;;;;5.18;1.15;;;11.50;99.90;;;;;;4994189;28;20178;-77
2024/01/01 10:53:10;;;;;;;3.58;0.88;;;11.50;99.90;;;;;;4993715;28;20288;-76
2024/01/01 10:56:01;;;;;;;6.68;2.97;;;11.50;99.90;;;;;;4993811;28;20253;-76
2024/01/01 10:58:32;;;;;;;3.85;0.73;;;11.50;99.90;;;;;;4994145;28;20182;-77
2024/01/01 11:01:14;;;;;;;3.70;1.10;;;11.50;99.90;;;;;;4994148;28;20714;-77
2024/01/01 11:03:41;;;;;;;4.32;0.80;;;11.60;99.90;;;;;;4976010;28;20205;-77
2024/01/01 11:06:27;;;;;;;4.68;1.00;;;11.60;99.90;;;;;;4993362;28;20209;-77
2024/01/01 11:08:57;;;;;;;2.97;1.10;;;11.70;99.90;;;;;;4976256;28;20601;-77
2024/01/01 11:11:32;;;;;;;4.70;0.80;;;11.70;99.90;;;;;;4993542;28;20592;-77
2024/01/01 11:13:59;;;;;;;3.97;0.80;;;11.80;99.90;;;;;;4967997;28;20202;-77
2024/01/01 11:16:26;;;;;;;4.45;0.90;;;11.80;99.90;;;;;;4993197;28;20179;-77
2024/01/01 11:18:52;;;;;;;5.55;0.80;;;11.90;99.90;;;;;;4959507;28;20186;-77
2024/01/01 11:21:32;;;;;;;2.88;0.80;;;11.90;99.90;;;;;;4976314;28;20237;-77
2024/01/01 11:24:01;;;;;;;3.28;1.10;;;11.90;99.90;;;;;;4975838;28;20209;-77
2024/01/01 11:26:34;;;;;;;5.13;0.90;;;12.00;99.90;;;;;;4975515;28;20795;-77
2024/01/01 11:29:04;;;;;;;3.15;0.90;;;12.00;99.90;;;;;;4976011;28;20282;-77
2024/01/01 11:31:31;;;;;;;2.10;0.80;;;12.00;99.90;;;;;;4993550;28;20525;-77
2024/01/01 11:33:59;;;;;;;1.95;0.70;;;12.00;99.90;;;;;;4959278;28;20207;-77
2024/01/01 11:36:26;;;;;;;3.72;1.10;;;12.00;99.90;;;;;;4975479;28;20266;-76
2024/01/01 11:38:52;;;;;;;4.05;0.90;;;12.00;99.90;;;;;;4975527;28;20175;-76
2024/01/01 11:41:26;;;;;;;6.22;1.00;;;12.00;99.90;;;;;;4959842;28;20187;-76
2024/01/01 11:43:52;;;;;;;1.92;0.70;;;12.00;99.90;;;;;;4993234;28;20554;-76
2024/01/01 11:46:24;;;;;;;3.80;0.80;;;12.00;99.90;;;;;;4992867;28;20225;-76
2024/01/01 11:48:59;;;;;;;5.20;1.58;;;12.00;99.90;;;;;;4975387;28;20590;-77
2024/01/01 11:51:25;;;;;;;2.40;0.80;;;12.00;99.90;;;;;;4959658;28;20228;-76
2024/01/01 11:54:10;;;;;;;4.50;0.70;;;11.90;99.90;;;;;;4974959;28;20664;-76
2024/01/01 11:56:37;;;;;;;9.35;1.60;;;11.90;99.90;;;;;;4975128;28;21140;-76
2024/01/01 11:59:06;;;;;;;7.65;1.30;;;11.90;99.90;;;;;;4967618;28;20168;-76
2024/01/01 12:01:33;;;;;;;4.43;0.80;;;11.90;99.90;;;;;;4972009;28;20182;-77
2024/01/01 12:04:01;;;;;;;4.18;0.85;;;11.90;99.90;;;;;;4974659;28;20555;-76
2024/01/01 12:06:28;;;;;;;7.18;1.00;;;11.90;99.90;;;;;;4975135;28;20329;-77
2024/01/01 12:09:04;;;;;;;2.58;0.80;;;11.90;99.90;;;;;;4975453;28;20582;-77
2024/01/01 12:11:30;;;;;;;3.17;0.90;;;11.80;99.90;;;;;;4975300;28;20179;-77
2024/01/01 12:13:56;;;;;;;4.13;0.90;;;11.80;99.90;;;;;;4971571;28;20739;-76
2024/01/01 12:16:23;;;;;;;4.63;0.90;;;11.80;99.90;;;;;;4958465;28;20265;-76
2024/01/01 12:18:59;;;;;;;5.28;1.17;;;11.80;99.90;;;;;;4974909;28;20191;-77
2024/01/01 12:21:36;;;;;;;4.65;0.90;;;11.80;99.90;;;;;;4992680;28;20687;-76
2024/01/01 12:24:03;;;;;;;6.50;1.17;;;11.90;99.90;;;;;;4974737;28;20203;-77
2024/01/01 12:26:31;;;;;;;4.07;1.35;;;11.90;99.90;;;;;;4974503;28;20191;-77
2024/01/01 12:29:10;;;;;;;8.48;1.25;;;11.90;99.90;;;;;;4975034;28;20190;-77
2024/01/01 12:31:37;;;;;;;5.13;1.10;;;11.90;99.90;;;;;;4973941;28;20273;-77
2024/01/01 12:34:04;;;;;;;3.63;1.30;;;11.90;99.90;;;;;;4991924;28;20257;-77
2024/01/01 12:36:30;;;;;;;8.20;2.15;;;11.90;99.90;;;;;;4976804;28;20669;-77
2024/01/01 12:38:55;;;;;;;6.83;1.40;;;12.00;99.90;;;;;;4969879;28;20258;-77
2024/01/01 12:41:21;;;;;;;4.27;1.00;;;12.00;99.90;;;;;;4986767;28;20194;-77
2024/01/01 12:43:47;;;;;;;6.67;1.40;;;12.00;99.90;;;;;;4990127;28;20198;-77